Aérodrome :
LOGIN :

S'inscrire | Disclaimer

   EN    FR    IT 

 










Légende :    VFR   VFR Marginal   IFR   IFR Intensif   IFR Très Intensif
Visi : 
Plafond : 
>= 8 km
>= 3000ft
5 à 8 km
1000 à 3000 ft
1500m à 5 km
500 à 1000 ft
800 à 1500m
200 à 500 ft
< 800m
< 200 ft
Symboles :   Orages  Brouillard  Fortes neiges  Fortes précipitations  Vent > 20 kt
SIGMETs :   Divers  Orages  Givrage  Turbulence  Onde Orograph.  Cendres Volcan.






- Altitude de l'aérodrome : 348 ft
- Code IATA : TSR


LRTR - Timisoara

DERNIER METAR :
  • 200200Z 11009KT CAVOK 10/07 Q1018

METARs EXPIRÉS :
  • 200130Z 10011KT CAVOK 11/07 Q1018
  • 200100Z 10010KT CAVOK 10/07 Q1018
  • 200030Z 10008KT CAVOK 09/07 Q1019
  • 200000Z 12009KT CAVOK 08/07 Q1019
  • 192330Z 12008KT CAVOK 08/07 Q1019

TAF TAF LRTR
Valide du 20 à 00h jusqu'au 21 à 00h UTC


192300Z 2000/2024 09008KT CAVOK
BECMG 2009/2011 17010KT 5000 -RA BR BKN015 BKN040
TEMPO 2012/2016 3000 RA BR BKN010 OVC030
BECMG 2017/2019 3000 BR OVC020
PROB30
TEMPO 2021/2024 1500 -DZ BR BKN015 OVC020



MET'MAP, la Météo Aéronautique d'un coup d'oeil ! - Copyright ORBIFLY Décembre 2007 - Disclaimer

ORBIFLY MET'MAP TEAM :

Programmation & Développement : Alexandra Zaïnal
Conception & Développement : Baudouin d'Aumeries
Co-Programmation & Développement : Marc-Olivier Méhu
Soutien technique & logistique : Manuel Goepfert

Contact : metmap@orbifly.com




SOURCES & CREDITS :

   NOAA